sensor_id;sensor_type;location;lat;lon;timestamp;temperature;humidity
262;DHT22;114;48.260;10.988;2024-03-06T00:01:54;5.50;1.00
262;DHT22;114;48.260;10.988;2024-03-06T00:04:21;5.40;1.00
262;DHT22;114;48.260;10.988;2024-03-06T00:06:48;5.50;1.00
262;DHT22;114;48.260;10.988;2024-03-06T00:09:14;5.40;1.00
262;DHT22;114;48.260;10.988;2024-03-06T00:11:39;5.40;1.00
262;DHT22;114;48.260;10.988;2024-03-06T00:14:05;5.40;1.00
262;DHT22;114;48.260;10.988;2024-03-06T00:16:33;5.50;1.00
262;DHT22;114;48.260;10.988;2024-03-06T00:18:59;5.40;1.00
262;DHT22;114;48.260;10.988;2024-03-06T00:21:25;5.50;1.00
262;DHT22;114;48.260;10.988;2024-03-06T00:23:51;5.40;1.00
262;DHT22;114;48.260;10.988;2024-03-06T00:26:16;5.50;1.00
262;DHT22;114;48.260;10.988;2024-03-06T00:28:42;5.50;1.00
262;DHT22;114;48.260;10.988;2024-03-06T00:31:08;5.60;1.00
262;DHT22;114;48.260;10.988;2024-03-06T00:33:33;5.50;1.00
262;DHT22;114;48.260;10.988;2024-03-06T00:35:59;5.50;1.00
262;DHT22;114;48.260;10.988;2024-03-06T00:38:27;5.50;1.00
262;DHT22;114;48.260;10.988;2024-03-06T00:40:52;5.50;1.00
262;DHT22;114;48.260;10.988;2024-03-06T00:43:18;5.50;1.00
262;DHT22;114;48.260;10.988;2024-03-06T00:45:44;5.50;1.00
262;DHT22;114;48.260;10.988;2024-03-06T00:48:09;5.50;1.00
262;DHT22;114;48.260;10.988;2024-03-06T00:50:35;5.50;1.00
262;DHT22;114;48.260;10.988;2024-03-06T00:53:01;5.50;1.00
262;DHT22;114;48.260;10.988;2024-03-06T00:55:26;5.40;1.00
262;DHT22;114;48.260;10.988;2024-03-06T00:57:52;5.40;1.00
262;DHT22;114;48.260;10.988;2024-03-06T01:00:19;5.50;1.00
262;DHT22;114;48.260;10.988;2024-03-06T01:02:45;5.50;1.00
262;DHT22;114;48.260;10.988;2024-03-06T01:05:10;5.50;1.00
262;DHT22;114;48.260;10.988;2024-03-06T01:07:39;5.50;1.00
262;DHT22;114;48.260;10.988;2024-03-06T01:10:06;5.40;1.00
262;DHT22;114;48.260;10.988;2024-03-06T01:12:33;5.50;1.00
262;DHT22;114;48.260;10.988;2024-03-06T01:14:58;5.50;1.00
262;DHT22;114;48.260;10.988;2024-03-06T01:17:24;5.40;1.00
262;DHT22;114;48.260;10.988;2024-03-06T01:19:50;5.50;1.00
262;DHT22;114;48.260;10.988;2024-03-06T01:22:16;5.50;1.00
262;DHT22;114;48.260;10.988;2024-03-06T01:24:43;5.50;1.00
262;DHT22;114;48.260;10.988;2024-03-06T01:27:09;5.50;1.00
262;DHT22;114;48.260;10.988;2024-03-06T01:29:35;5.50;1.00
262;DHT22;114;48.260;10.988;2024-03-06T01:32:01;5.40;1.00
262;DHT22;114;48.260;10.988;2024-03-06T01:34:27;5.40;1.00
262;DHT22;114;48.260;10.988;2024-03-06T01:36:55;5.60;1.00
262;DHT22;114;48.260;10.988;2024-03-06T01:39:21;5.40;1.00
262;DHT22;114;48.260;10.988;2024-03-06T01:41:47;5.60;1.00
262;DHT22;114;48.260;10.988;2024-03-06T01:44:17;5.40;1.00
262;DHT22;114;48.260;10.988;2024-03-06T01:46:44;5.50;1.00
262;DHT22;114;48.260;10.988;2024-03-06T01:49:11;5.30;1.00
262;DHT22;114;48.260;10.988;2024-03-06T01:51:40;5.30;1.00
262;DHT22;114;48.260;10.988;2024-03-06T01:54:06;5.30;1.00
262;DHT22;114;48.260;10.988;2024-03-06T01:56:33;5.30;1.00
262;DHT22;114;48.260;10.988;2024-03-06T01:59:00;5.40;1.00
262;DHT22;114;48.260;10.988;2024-03-06T02:01:30;5.30;1.00
262;DHT22;114;48.260;10.988;2024-03-06T02:03:56;5.20;1.00
262;DHT22;114;48.260;10.988;2024-03-06T02:06:22;5.20;1.00
262;DHT22;114;48.260;10.988;2024-03-06T02:08:48;5.20;1.00
262;DHT22;114;48.260;10.988;2024-03-06T02:11:14;5.30;1.00
262;DHT22;114;48.260;10.988;2024-03-06T02:13:42;5.40;1.00
262;DHT22;114;48.260;10.988;2024-03-06T02:16:09;5.30;1.00
262;DHT22;114;48.260;10.988;2024-03-06T02:18:36;5.20;1.00
262;DHT22;114;48.260;10.988;2024-03-06T02:21:03;5.20;1.00
262;DHT22;114;48.260;10.988;2024-03-06T02:23:30;5.30;1.00
262;DHT22;114;48.260;10.988;2024-03-06T02:25:56;5.30;1.00
262;DHT22;114;48.260;10.988;2024-03-06T02:28:23;5.40;1.00
262;DHT22;114;48.260;10.988;2024-03-06T02:30:50;5.30;1.00
262;DHT22;114;48.260;10.988;2024-03-06T02:33:16;5.30;1.00
262;DHT22;114;48.260;10.988;2024-03-06T02:35:43;5.30;1.00
262;DHT22;114;48.260;10.988;2024-03-06T02:38:10;5.30;1.00
262;DHT22;114;48.260;10.988;2024-03-06T02:40:36;5.20;1.00
262;DHT22;114;48.260;10.988;2024-03-06T02:43:02;5.30;1.00
262;DHT22;114;48.260;10.988;2024-03-06T02:45:28;5.30;1.00
262;DHT22;114;48.260;10.988;2024-03-06T02:47:53;5.20;1.00
262;DHT22;114;48.260;10.988;2024-03-06T02:50:19;5.20;1.00
262;DHT22;114;48.260;10.988;2024-03-06T02:52:46;5.30;1.00
262;DHT22;114;48.260;10.988;2024-03-06T02:55:12;5.30;1.00
262;DHT22;114;48.260;10.988;2024-03-06T02:57:38;5.20;1.00
262;DHT22;114;48.260;10.988;2024-03-06T03:00:04;5.20;1.00
262;DHT22;114;48.260;10.988;2024-03-06T03:02:30;5.20;1.00
262;DHT22;114;48.260;10.988;2024-03-06T03:04:56;5.20;1.00
262;DHT22;114;48.260;10.988;2024-03-06T03:07:23;5.20;1.00
262;DHT22;114;48.260;10.988;2024-03-06T03:09:49;5.10;1.00
262;DHT22;114;48.260;10.988;2024-03-06T03:12:14;5.30;1.00
262;DHT22;114;48.260;10.988;2024-03-06T03:14:40;5.10;1.00
262;DHT22;114;48.260;10.988;2024-03-06T03:17:07;5.10;1.00
262;DHT22;114;48.260;10.988;2024-03-06T03:19:32;5.30;1.00
262;DHT22;114;48.260;10.988;2024-03-06T03:21:58;5.10;1.00
262;DHT22;114;48.260;10.988;2024-03-06T03:24:24;5.30;1.00
262;DHT22;114;48.260;10.988;2024-03-06T03:26:53;5.20;1.00
262;DHT22;114;48.260;10.988;2024-03-06T03:29:19;5.30;1.00
262;DHT22;114;48.260;10.988;2024-03-06T03:31:44;5.20;1.00
262;DHT22;114;48.260;10.988;2024-03-06T03:34:10;5.30;1.00
262;DHT22;114;48.260;10.988;2024-03-06T03:36:42;5.40;1.00
262;DHT22;114;48.260;10.988;2024-03-06T03:39:10;5.30;1.00
262;DHT22;114;48.260;10.988;2024-03-06T03:41:50;5.30;1.00
262;DHT22;114;48.260;10.988;2024-03-06T03:44:17;5.30;1.00
262;DHT22;114;48.260;10.988;2024-03-06T03:46:46;5.40;1.00
262;DHT22;114;48.260;10.988;2024-03-06T03:49:12;5.30;1.00
262;DHT22;114;48.260;10.988;2024-03-06T03:51:39;5.30;1.00
262;DHT22;114;48.260;10.988;2024-03-06T03:54:05;5.20;1.00
262;DHT22;114;48.260;10.988;2024-03-06T03:56:32;5.20;1.00
262;DHT22;114;48.260;10.988;2024-03-06T03:58:58;5.20;1.00
262;DHT22;114;48.260;10.988;2024-03-06T04:01:25;5.30;1.00
262;DHT22;114;48.260;10.988;2024-03-06T04:03:52;5.20;1.00
262;DHT22;114;48.260;10.988;2024-03-06T04:06:18;5.40;1.00
262;DHT22;114;48.260;10.988;2024-03-06T04:08:45;5.20;1.00
262;DHT22;114;48.260;10.988;2024-03-06T04:11:13;5.20;1.00
262;DHT22;114;48.260;10.988;2024-03-06T04:13:39;5.30;1.00
262;DHT22;114;48.260;10.988;2024-03-06T04:16:05;5.30;1.00
262;DHT22;114;48.260;10.988;2024-03-06T04:18:31;5.20;1.00
262;DHT22;114;48.260;10.988;2024-03-06T04:21:06;5.30;1.00
262;DHT22;114;48.260;10.988;2024-03-06T04:23:32;5.20;1.00
262;DHT22;114;48.260;10.988;2024-03-06T04:25:59;5.30;1.00
262;DHT22;114;48.260;10.988;2024-03-06T04:28:25;5.40;1.00
262;DHT22;114;48.260;10.988;2024-03-06T04:30:51;5.30;1.00
262;DHT22;114;48.260;10.988;2024-03-06T04:33:17;5.30;1.00
262;DHT22;114;48.260;10.988;2024-03-06T04:35:43;5.30;1.00
262;DHT22;114;48.260;10.988;2024-03-06T04:38:09;5.30;1.00
262;DHT22;114;48.260;10.988;2024-03-06T04:40:34;5.30;1.00
262;DHT22;114;48.260;10.988;2024-03-06T04:43:01;5.40;1.00
262;DHT22;114;48.260;10.988;2024-03-06T04:45:26;5.40;1.00
262;DHT22;114;48.260;10.988;2024-03-06T04:47:52;5.20;1.00
262;DHT22;114;48.260;10.988;2024-03-06T04:50:18;5.30;1.00
262;DHT22;114;48.260;10.988;2024-03-06T04:52:44;5.20;1.00
262;DHT22;114;48.260;10.988;2024-03-06T04:55:13;5.20;1.00
262;DHT22;114;48.260;10.988;2024-03-06T04:57:43;5.30;1.00
262;DHT22;114;48.260;10.988;2024-03-06T05:00:10;5.30;1.00
262;DHT22;114;48.260;10.988;2024-03-06T05:02:36;5.30;1.00
262;DHT22;114;48.260;10.988;2024-03-06T05:05:03;5.30;1.00
262;DHT22;114;48.260;10.988;2024-03-06T05:07:35;5.20;1.00
262;DHT22;114;48.260;10.988;2024-03-06T05:10:01;5.30;1.00
262;DHT22;114;48.260;10.988;2024-03-06T05:12:27;5.30;1.00
262;DHT22;114;48.260;10.988;2024-03-06T05:14:54;5.30;1.00
262;DHT22;114;48.260;10.988;2024-03-06T05:17:21;5.30;1.00
262;DHT22;114;48.260;10.988;2024-03-06T05:19:48;5.30;1.00
262;DHT22;114;48.260;10.988;2024-03-06T05:22:15;5.30;1.00
262;DHT22;114;48.260;10.988;2024-03-06T05:24:44;5.40;1.00
262;DHT22;114;48.260;10.988;2024-03-06T05:27:10;5.40;1.00
262;DHT22;114;48.260;10.988;2024-03-06T05:29:39;5.40;1.00
262;DHT22;114;48.260;10.988;2024-03-06T05:32:05;5.50;1.00
262;DHT22;114;48.260;10.988;2024-03-06T05:34:33;5.40;1.00
262;DHT22;114;48.260;10.988;2024-03-06T05:36:59;5.70;1.00
262;DHT22;114;48.260;10.988;2024-03-06T05:39:25;5.70;1.00
262;DHT22;114;48.260;10.988;2024-03-06T05:41:50;5.70;1.00
262;DHT22;114;48.260;10.988;2024-03-06T05:44:16;5.80;1.00
262;DHT22;114;48.260;10.988;2024-03-06T05:46:42;5.60;1.00
262;DHT22;114;48.260;10.988;2024-03-06T05:49:07;5.50;1.00
262;DHT22;114;48.260;10.988;2024-03-06T05:51:33;5.60;1.00
262;DHT22;114;48.260;10.988;2024-03-06T05:53:59;5.60;1.00
262;DHT22;114;48.260;10.988;2024-03-06T05:56:27;5.60;1.00
262;DHT22;114;48.260;10.988;2024-03-06T05:58:53;5.70;1.00
262;DHT22;114;48.260;10.988;2024-03-06T06:01:21;5.80;1.00
262;DHT22;114;48.260;10.988;2024-03-06T06:03:50;5.50;1.00
262;DHT22;114;48.260;10.988;2024-03-06T06:06:16;5.60;1.00
262;DHT22;114;48.260;10.988;2024-03-06T06:08:42;5.70;1.00
262;DHT22;114;48.260;10.988;2024-03-06T06:11:10;5.50;1.00
262;DHT22;114;48.260;10.988;2024-03-06T06:13:36;5.60;1.00
262;DHT22;114;48.260;10.988;2024-03-06T06:16:02;5.50;1.00
262;DHT22;114;48.260;10.988;2024-03-06T06:18:30;5.50;1.00
262;DHT22;114;48.260;10.988;2024-03-06T06:20:59;5.40;1.00
262;DHT22;114;48.260;10.988;2024-03-06T06:23:25;5.40;1.00
262;DHT22;114;48.260;10.988;2024-03-06T06:25:51;5.40;1.00
262;DHT22;114;48.260;10.988;2024-03-06T06:28:17;5.70;1.00
262;DHT22;114;48.260;10.988;2024-03-06T06:30:43;5.40;1.00
262;DHT22;114;48.260;10.988;2024-03-06T06:33:10;5.40;1.00
262;DHT22;114;48.260;10.988;2024-03-06T06:35:35;5.20;1.00
262;DHT22;114;48.260;10.988;2024-03-06T06:38:02;5.40;1.00
262;DHT22;114;48.260;10.988;2024-03-06T06:40:27;5.50;1.00
262;DHT22;114;48.260;10.988;2024-03-06T06:42:53;5.50;1.00
262;DHT22;114;48.260;10.988;2024-03-06T06:45:20;5.50;1.00
262;DHT22;114;48.260;10.988;2024-03-06T06:47:47;5.60;1.00
262;DHT22;114;48.260;10.988;2024-03-06T06:50:13;5.60;1.00
262;DHT22;114;48.260;10.988;2024-03-06T06:52:39;5.60;1.00
262;DHT22;114;48.260;10.988;2024-03-06T06:55:05;5.60;1.00
262;DHT22;114;48.260;10.988;2024-03-06T06:57:31;5.60;1.00
262;DHT22;114;48.260;10.988;2024-03-06T07:00:01;5.60;1.00
262;DHT22;114;48.260;10.988;2024-03-06T07:02:37;5.60;1.00
262;DHT22;114;48.260;10.988;2024-03-06T07:05:04;5.60;1.00
262;DHT22;114;48.260;10.988;2024-03-06T07:07:30;5.60;1.00
262;DHT22;114;48.260;10.988;2024-03-06T07:09:57;5.50;1.00
262;DHT22;114;48.260;10.988;2024-03-06T07:12:24;5.60;1.00
262;DHT22;114;48.260;10.988;2024-03-06T07:14:51;5.60;1.00
262;DHT22;114;48.260;10.988;2024-03-06T07:17:17;5.60;1.00
262;DHT22;114;48.260;10.988;2024-03-06T07:20:04;5.50;1.00
262;DHT22;114;48.260;10.988;2024-03-06T07:22:34;5.60;1.00
262;DHT22;114;48.260;10.988;2024-03-06T07:25:00;5.70;1.00
262;DHT22;114;48.260;10.988;2024-03-06T07:27:27;5.60;1.00
262;DHT22;114;48.260;10.988;2024-03-06T07:29:53;5.70;1.00
262;DHT22;114;48.260;10.988;2024-03-06T07:32:20;5.90;1.00
262;DHT22;114;48.260;10.988;2024-03-06T07:34:46;5.70;1.00
262;DHT22;114;48.260;10.988;2024-03-06T07:37:11;5.70;1.00
262;DHT22;114;48.260;10.988;2024-03-06T07:39:37;5.70;1.00
262;DHT22;114;48.260;10.988;2024-03-06T07:42:06;5.70;1.00
262;DHT22;114;48.260;10.988;2024-03-06T07:44:33;5.70;1.00
262;DHT22;114;48.260;10.988;2024-03-06T07:47:02;5.80;1.00
262;DHT22;114;48.260;10.988;2024-03-06T07:49:31;5.70;1.00
262;DHT22;114;48.260;10.988;2024-03-06T07:51:57;5.80;1.00
262;DHT22;114;48.260;10.988;2024-03-06T07:54:23;5.90;1.00
262;DHT22;114;48.260;10.988;2024-03-06T07:56:49;5.70;1.00
262;DHT22;114;48.260;10.988;2024-03-06T07:59:15;5.70;1.00
262;DHT22;114;48.260;10.988;2024-03-06T08:01:44;5.70;1.00
262;DHT22;114;48.260;10.988;2024-03-06T08:04:10;5.70;1.00
262;DHT22;114;48.260;10.988;2024-03-06T08:06:36;5.90;1.00
262;DHT22;114;48.260;10.988;2024-03-06T08:09:03;5.90;1.00
262;DHT22;114;48.260;10.988;2024-03-06T08:11:35;5.90;1.00
262;DHT22;114;48.260;10.988;2024-03-06T08:14:02;6.00;1.00
262;DHT22;114;48.260;10.988;2024-03-06T08:16:28;6.10;1.00
262;DHT22;114;48.260;10.988;2024-03-06T08:18:55;5.90;1.00
262;DHT22;114;48.260;10.988;2024-03-06T08:21:22;5.90;1.00
262;DHT22;114;48.260;10.988;2024-03-06T08:23:48;6.00;1.00
262;DHT22;114;48.260;10.988;2024-03-06T08:26:15;6.10;1.00
262;DHT22;114;48.260;10.988;2024-03-06T08:28:44;6.30;1.00
262;DHT22;114;48.260;10.988;2024-03-06T08:31:10;6.20;1.00
262;DHT22;114;48.260;10.988;2024-03-06T08:33:37;6.20;1.00
262;DHT22;114;48.260;10.988;2024-03-06T08:36:10;6.40;1.00
262;DHT22;114;48.260;10.988;2024-03-06T08:38:36;6.60;1.00
262;DHT22;114;48.260;10.988;2024-03-06T08:41:01;6.60;1.00
262;DHT22;114;48.260;10.988;2024-03-06T08:43:27;6.80;1.00
262;DHT22;114;48.260;10.988;2024-03-06T08:45:53;6.90;1.00
262;DHT22;114;48.260;10.988;2024-03-06T08:48:18;6.90;1.00
262;DHT22;114;48.260;10.988;2024-03-06T08:50:45;6.80;1.00
262;DHT22;114;48.260;10.988;2024-03-06T08:53:11;6.90;1.00
262;DHT22;114;48.260;10.988;2024-03-06T08:55:46;6.80;1.00
262;DHT22;114;48.260;10.988;2024-03-06T08:58:12;6.90;1.00
262;DHT22;114;48.260;10.988;2024-03-06T09:00:40;6.80;1.00
262;DHT22;114;48.260;10.988;2024-03-06T09:03:07;6.80;1.00
262;DHT22;114;48.260;10.988;2024-03-06T09:05:33;6.70;1.00
262;DHT22;114;48.260;10.988;2024-03-06T09:07:59;6.70;1.00
262;DHT22;114;48.260;10.988;2024-03-06T09:10:25;6.90;1.00
262;DHT22;114;48.260;10.988;2024-03-06T09:12:51;6.70;1.00
262;DHT22;114;48.260;10.988;2024-03-06T09:15:17;6.70;1.00
262;DHT22;114;48.260;10.988;2024-03-06T09:17:45;6.70;1.00
262;DHT22;114;48.260;10.988;2024-03-06T09:20:12;6.70;1.00
262;DHT22;114;48.260;10.988;2024-03-06T09:22:39;6.90;1.00
262;DHT22;114;48.260;10.988;2024-03-06T09:25:05;6.90;1.00
262;DHT22;114;48.260;10.988;2024-03-06T09:27:31;6.90;1.00
262;DHT22;114;48.260;10.988;2024-03-06T09:29:57;6.80;1.00
262;DHT22;114;48.260;10.988;2024-03-06T09:32:23;6.60;1.00
262;DHT22;114;48.260;10.988;2024-03-06T09:34:49;6.70;1.00
262;DHT22;114;48.260;10.988;2024-03-06T09:37:16;6.70;1.00
262;DHT22;114;48.260;10.988;2024-03-06T09:39:42;6.70;1.00
262;DHT22;114;48.260;10.988;2024-03-06T09:42:07;6.70;1.00
262;DHT22;114;48.260;10.988;2024-03-06T09:44:34;6.70;1.00
262;DHT22;114;48.260;10.988;2024-03-06T09:47:02;6.90;1.00
262;DHT22;114;48.260;10.988;2024-03-06T09:49:33;6.80;1.00
262;DHT22;114;48.260;10.988;2024-03-06T09:52:00;7.10;1.00
262;DHT22;114;48.260;10.988;2024-03-06T09:54:29;7.30;1.00
262;DHT22;114;48.260;10.988;2024-03-06T09:56:55;7.40;1.00
262;DHT22;114;48.260;10.988;2024-03-06T09:59:23;7.30;1.00
262;DHT22;114;48.260;10.988;2024-03-06T10:01:55;7.40;1.00
262;DHT22;114;48.260;10.988;2024-03-06T10:04:27;7.70;1.00
262;DHT22;114;48.260;10.988;2024-03-06T10:06:58;7.60;1.00
262;DHT22;114;48.260;10.988;2024-03-06T10:09:25;7.40;1.00
262;DHT22;114;48.260;10.988;2024-03-06T10:11:52;7.60;1.00
262;DHT22;114;48.260;10.988;2024-03-06T10:14:20;7.50;1.00
262;DHT22;114;48.260;10.988;2024-03-06T10:19:19;7.50;1.00
262;DHT22;114;48.260;10.988;2024-03-06T10:21:49;7.40;1.00
262;DHT22;114;48.260;10.988;2024-03-06T10:24:27;7.60;1.00
262;DHT22;114;48.260;10.988;2024-03-06T10:26:55;7.70;1.00
262;DHT22;114;48.260;10.988;2024-03-06T10:29:26;7.80;1.00
262;DHT22;114;48.260;10.988;2024-03-06T10:31:55;7.90;1.00
262;DHT22;114;48.260;10.988;2024-03-06T10:34:25;8.20;1.00
262;DHT22;114;48.260;10.988;2024-03-06T10:36:58;8.20;1.00
262;DHT22;114;48.260;10.988;2024-03-06T10:39:24;8.40;1.00
262;DHT22;114;48.260;10.988;2024-03-06T10:41:52;8.40;1.00
262;DHT22;114;48.260;10.988;2024-03-06T10:44:22;8.40;1.00
262;DHT22;114;48.260;10.988;2024-03-06T10:46:55;8.30;1.00
262;DHT22;114;48.260;10.988;2024-03-06T10:49:23;8.00;1.00
262;DHT22;114;48.260;10.988;2024-03-06T10:51:51;8.10;1.00
262;DHT22;114;48.260;10.988;2024-03-06T10:54:19;8.10;1.00
262;DHT22;114;48.260;10.988;2024-03-06T10:56:47;8.30;1.00
262;DHT22;114;48.260;10.988;2024-03-06T10:59:14;8.40;1.00
262;DHT22;114;48.260;10.988;2024-03-06T11:01:41;8.50;1.00
262;DHT22;114;48.260;10.988;2024-03-06T11:04:10;8.30;1.00
262;DHT22;114;48.260;10.988;2024-03-06T11:06:37;8.20;1.00
262;DHT22;114;48.260;10.988;2024-03-06T11:09:03;8.00;1.00
262;DHT22;114;48.260;10.988;2024-03-06T11:11:31;8.00;1.00
262;DHT22;114;48.260;10.988;2024-03-06T11:14:03;7.80;1.00
262;DHT22;114;48.260;10.988;2024-03-06T11:16:33;7.80;1.00
262;DHT22;114;48.260;10.988;2024-03-06T11:19:18;7.80;1.00
262;DHT22;114;48.260;10.988;2024-03-06T11:21:46;7.60;1.00
262;DHT22;114;48.260;10.988;2024-03-06T11:24:24;7.80;1.00
262;DHT22;114;48.260;10.988;2024-03-06T11:26:59;7.70;1.00
262;DHT22;114;48.260;10.988;2024-03-06T11:29:32;7.80;1.00
262;DHT22;114;48.260;10.988;2024-03-06T11:32:14;7.90;1.00
262;DHT22;114;48.260;10.988;2024-03-06T11:34:40;8.10;1.00
262;DHT22;114;48.260;10.988;2024-03-06T11:37:07;8.00;1.00
262;DHT22;114;48.260;10.988;2024-03-06T11:39:36;8.40;1.00
262;DHT22;114;48.260;10.988;2024-03-06T11:42:03;8.20;1.00
262;DHT22;114;48.260;10.988;2024-03-06T11:44:32;8.10;1.00
262;DHT22;114;48.260;10.988;2024-03-06T11:47:05;8.10;1.00
262;DHT22;114;48.260;10.988;2024-03-06T11:49:35;8.00;1.00
262;DHT22;114;48.260;10.988;2024-03-06T11:52:08;8.00;1.00
262;DHT22;114;48.260;10.988;2024-03-06T11:54:35;8.10;1.00
262;DHT22;114;48.260;10.988;2024-03-06T11:57:03;8.20;1.00
262;DHT22;114;48.260;10.988;2024-03-06T11:59:34;8.40;1.00
262;DHT22;114;48.260;10.988;2024-03-06T12:02:02;8.60;1.00
262;DHT22;114;48.260;10.988;2024-03-06T12:04:30;8.40;1.00
262;DHT22;114;48.260;10.988;2024-03-06T12:06:58;8.20;1.00
262;DHT22;114;48.260;10.988;2024-03-06T12:09:41;8.00;1.00
262;DHT22;114;48.260;10.988;2024-03-06T12:12:08;7.90;1.00
262;DHT22;114;48.260;10.988;2024-03-06T12:14:35;7.90;1.00
262;DHT22;114;48.260;10.988;2024-03-06T12:17:02;8.00;1.00
262;DHT22;114;48.260;10.988;2024-03-06T12:19:34;7.70;1.00
262;DHT22;114;48.260;10.988;2024-03-06T12:22:00;8.00;1.00
262;DHT22;114;48.260;10.988;2024-03-06T12:24:26;7.90;1.00
262;DHT22;114;48.260;10.988;2024-03-06T12:27:03;7.70;1.00
262;DHT22;114;48.260;10.988;2024-03-06T12:29:31;7.60;1.00
262;DHT22;114;48.260;10.988;2024-03-06T12:32:01;7.40;1.00
262;DHT22;114;48.260;10.988;2024-03-06T12:34:27;7.40;1.00
262;DHT22;114;48.260;10.988;2024-03-06T12:36:53;7.30;1.00
262;DHT22;114;48.260;10.988;2024-03-06T12:39:19;7.30;1.00
262;DHT22;114;48.260;10.988;2024-03-06T12:41:50;7.10;1.00
262;DHT22;114;48.260;10.988;2024-03-06T12:44:19;6.90;1.00
262;DHT22;114;48.260;10.988;2024-03-06T12:46:44;6.80;1.00
262;DHT22;114;48.260;10.988;2024-03-06T12:49:10;6.80;1.00
262;DHT22;114;48.260;10.988;2024-03-06T12:51:36;6.90;1.00
262;DHT22;114;48.260;10.988;2024-03-06T12:54:02;7.00;1.00
262;DHT22;114;48.260;10.988;2024-03-06T12:56:29;6.90;1.00
262;DHT22;114;48.260;10.988;2024-03-06T12:58:55;6.70;1.00
262;DHT22;114;48.260;10.988;2024-03-06T13:01:20;6.60;1.00
262;DHT22;114;48.260;10.988;2024-03-06T13:03:46;6.70;1.00
262;DHT22;114;48.260;10.988;2024-03-06T13:06:12;6.60;1.00
262;DHT22;114;48.260;10.988;2024-03-06T13:08:38;6.60;1.00
262;DHT22;114;48.260;10.988;2024-03-06T13:11:04;6.40;1.00
262;DHT22;114;48.260;10.988;2024-03-06T13:13:29;6.60;1.00
262;DHT22;114;48.260;10.988;2024-03-06T13:15:58;6.60;1.00
262;DHT22;114;48.260;10.988;2024-03-06T13:18:24;6.40;1.00
262;DHT22;114;48.260;10.988;2024-03-06T13:20:58;6.40;1.00
262;DHT22;114;48.260;10.988;2024-03-06T13:23:26;6.60;1.00
262;DHT22;114;48.260;10.988;2024-03-06T13:25:51;6.50;1.00
262;DHT22;114;48.260;10.988;2024-03-06T13:28:17;6.60;1.00
262;DHT22;114;48.260;10.988;2024-03-06T13:30:43;6.50;1.00
262;DHT22;114;48.260;10.988;2024-03-06T13:33:09;6.50;1.00
262;DHT22;114;48.260;10.988;2024-03-06T13:35:36;6.70;1.00
262;DHT22;114;48.260;10.988;2024-03-06T13:38:02;6.30;1.00
262;DHT22;114;48.260;10.988;2024-03-06T13:40:28;6.30;1.00
262;DHT22;114;48.260;10.988;2024-03-06T13:42:54;6.20;1.00
262;DHT22;114;48.260;10.988;2024-03-06T13:45:21;6.30;1.00
262;DHT22;114;48.260;10.988;2024-03-06T13:47:47;6.20;1.00
262;DHT22;114;48.260;10.988;2024-03-06T13:50:15;6.30;1.00
262;DHT22;114;48.260;10.988;2024-03-06T13:52:41;6.30;1.00
262;DHT22;114;48.260;10.988;2024-03-06T13:55:08;6.20;1.00
262;DHT22;114;48.260;10.988;2024-03-06T13:57:35;6.20;1.00
262;DHT22;114;48.260;10.988;2024-03-06T14:00:06;6.30;1.00
262;DHT22;114;48.260;10.988;2024-03-06T14:02:33;6.30;1.00
262;DHT22;114;48.260;10.988;2024-03-06T14:05:02;6.20;1.00
262;DHT22;114;48.260;10.988;2024-03-06T14:07:30;6.20;1.00
262;DHT22;114;48.260;10.988;2024-03-06T14:09:56;6.20;1.00
262;DHT22;114;48.260;10.988;2024-03-06T14:12:25;6.20;1.00
262;DHT22;114;48.260;10.988;2024-03-06T14:14:51;6.20;1.00
262;DHT22;114;48.260;10.988;2024-03-06T14:17:18;6.20;1.00
262;DHT22;114;48.260;10.988;2024-03-06T14:19:44;6.30;1.00
262;DHT22;114;48.260;10.988;2024-03-06T14:22:12;6.10;1.00
262;DHT22;114;48.260;10.988;2024-03-06T14:24:37;6.10;1.00
262;DHT22;114;48.260;10.988;2024-03-06T14:27:03;6.00;1.00
262;DHT22;114;48.260;10.988;2024-03-06T14:29:32;5.90;1.00
262;DHT22;114;48.260;10.988;2024-03-06T14:31:58;6.00;1.00
262;DHT22;114;48.260;10.988;2024-03-06T14:34:24;5.90;1.00
262;DHT22;114;48.260;10.988;2024-03-06T14:36:51;5.90;1.00
262;DHT22;114;48.260;10.988;2024-03-06T14:39:18;6.00;1.00
262;DHT22;114;48.260;10.988;2024-03-06T14:41:43;6.00;1.00
262;DHT22;114;48.260;10.988;2024-03-06T14:44:10;6.20;1.00
262;DHT22;114;48.260;10.988;2024-03-06T14:46:36;6.20;1.00
262;DHT22;114;48.260;10.988;2024-03-06T14:49:09;6.10;1.00
262;DHT22;114;48.260;10.988;2024-03-06T14:51:35;6.30;1.00
262;DHT22;114;48.260;10.988;2024-03-06T14:54:02;6.10;1.00
262;DHT22;114;48.260;10.988;2024-03-06T14:56:28;6.10;1.00
262;DHT22;114;48.260;10.988;2024-03-06T14:58:57;6.20;1.00
262;DHT22;114;48.260;10.988;2024-03-06T15:01:24;6.30;1.00
262;DHT22;114;48.260;10.988;2024-03-06T15:03:51;6.30;1.00
262;DHT22;114;48.260;10.988;2024-03-06T15:06:17;6.20;1.00
262;DHT22;114;48.260;10.988;2024-03-06T15:08:43;6.20;1.00
262;DHT22;114;48.260;10.988;2024-03-06T15:11:10;6.20;1.00
262;DHT22;114;48.260;10.988;2024-03-06T15:13:37;6.20;1.00
262;DHT22;114;48.260;10.988;2024-03-06T15:16:04;6.20;1.00
262;DHT22;114;48.260;10.988;2024-03-06T15:18:30;6.30;1.00
262;DHT22;114;48.260;10.988;2024-03-06T15:20:56;6.20;1.00
262;DHT22;114;48.260;10.988;2024-03-06T15:23:21;6.20;1.00
262;DHT22;114;48.260;10.988;2024-03-06T15:25:47;6.10;1.00
262;DHT22;114;48.260;10.988;2024-03-06T15:28:15;6.10;1.00
262;DHT22;114;48.260;10.988;2024-03-06T15:30:42;6.10;1.00
262;DHT22;114;48.260;10.988;2024-03-06T15:33:08;6.20;1.00
262;DHT22;114;48.260;10.988;2024-03-06T15:35:34;6.00;1.00
262;DHT22;114;48.260;10.988;2024-03-06T15:38:02;6.00;1.00
262;DHT22;114;48.260;10.988;2024-03-06T15:40:30;6.00;1.00
262;DHT22;114;48.260;10.988;2024-03-06T15:42:55;5.80;1.00
262;DHT22;114;48.260;10.988;2024-03-06T15:45:23;6.10;1.00
262;DHT22;114;48.260;10.988;2024-03-06T15:47:49;5.90;1.00
262;DHT22;114;48.260;10.988;2024-03-06T15:50:15;5.90;1.00
262;DHT22;114;48.260;10.988;2024-03-06T15:52:42;5.90;1.00
262;DHT22;114;48.260;10.988;2024-03-06T15:55:10;5.90;1.00
262;DHT22;114;48.260;10.988;2024-03-06T15:57:36;5.90;1.00
262;DHT22;114;48.260;10.988;2024-03-06T16:00:06;5.90;1.00
262;DHT22;114;48.260;10.988;2024-03-06T16:02:32;5.80;1.00
262;DHT22;114;48.260;10.988;2024-03-06T16:04:58;5.90;1.00
262;DHT22;114;48.260;10.988;2024-03-06T16:07:27;5.80;1.00
262;DHT22;114;48.260;10.988;2024-03-06T16:09:53;5.80;1.00
262;DHT22;114;48.260;10.988;2024-03-06T16:12:20;5.80;1.00
262;DHT22;114;48.260;10.988;2024-03-06T16:14:45;5.80;1.00
262;DHT22;114;48.260;10.988;2024-03-06T16:17:11;5.80;1.00
262;DHT22;114;48.260;10.988;2024-03-06T16:19:37;5.80;1.00
262;DHT22;114;48.260;10.988;2024-03-06T16:22:05;6.00;1.00
262;DHT22;114;48.260;10.988;2024-03-06T16:24:31;5.70;1.00
262;DHT22;114;48.260;10.988;2024-03-06T16:26:57;5.90;1.00
262;DHT22;114;48.260;10.988;2024-03-06T16:29:23;5.90;1.00
262;DHT22;114;48.260;10.988;2024-03-06T16:31:49;5.70;1.00
262;DHT22;114;48.260;10.988;2024-03-06T16:34:17;5.60;1.00
262;DHT22;114;48.260;10.988;2024-03-06T16:36:47;5.70;1.00
262;DHT22;114;48.260;10.988;2024-03-06T16:39:14;5.60;1.00
262;DHT22;114;48.260;10.988;2024-03-06T16:41:42;5.60;1.00
262;DHT22;114;48.260;10.988;2024-03-06T16:44:08;5.70;1.00
262;DHT22;114;48.260;10.988;2024-03-06T16:46:36;5.40;1.00
262;DHT22;114;48.260;10.988;2024-03-06T16:49:04;5.50;1.00
262;DHT22;114;48.260;10.988;2024-03-06T16:51:30;5.50;1.00
262;DHT22;114;48.260;10.988;2024-03-06T16:54:00;5.50;1.00